createdAt,value
2023-02-03T00:00:12.136Z,7.1
2023-02-03T00:01:28.455Z,6.3
2023-02-03T00:02:44.722Z,7.7
2023-02-03T00:04:01.029Z,7.9
2023-02-03T00:05:17.341Z,6.3
2023-02-03T00:06:33.610Z,8.3
2023-02-03T00:07:49.941Z,9.1
2023-02-03T00:09:06.236Z,7
2023-02-03T00:10:21.514Z,6.8
2023-02-03T00:11:37.814Z,7.2
2023-02-03T00:12:54.098Z,4.2
2023-02-03T00:14:10.392Z,5.8
2023-02-03T00:15:26.681Z,5.4
2023-02-03T00:16:42.981Z,4.4
2023-02-03T00:17:59.282Z,4.5
2023-02-03T00:19:15.574Z,5.3
2023-02-03T00:20:31.866Z,4
2023-02-03T00:21:48.157Z,6.2
2023-02-03T00:23:04.464Z,4.1
2023-02-03T00:24:20.744Z,4.8
2023-02-03T00:25:37.041Z,5.3
2023-02-03T00:26:52.354Z,5.8
2023-02-03T00:28:08.657Z,5.3
2023-02-03T00:29:24.940Z,5.5
2023-02-03T00:30:41.237Z,4.5
2023-02-03T00:31:57.527Z,5.1
2023-02-03T00:33:13.818Z,4.8
2023-02-03T00:34:30.129Z,5
2023-02-03T00:35:46.420Z,5.1
2023-02-03T00:37:02.706Z,4.5
2023-02-03T00:38:19.009Z,4.7
2023-02-03T00:39:35.308Z,5.7
2023-02-03T00:40:51.587Z,3.1
2023-02-03T00:42:07.887Z,5.8
2023-02-03T00:43:23.202Z,4.4
2023-02-03T00:44:39.485Z,4.7
2023-02-03T00:45:55.786Z,6.3
2023-02-03T00:47:12.089Z,5
2023-02-03T00:48:28.371Z,4.9
2023-02-03T00:49:44.665Z,4.4
2023-02-03T00:51:00.957Z,5.1
2023-02-03T00:52:17.250Z,4.7
2023-02-03T00:53:33.000Z,5.5
2023-02-03T00:54:49.847Z,3.9
2023-02-03T00:56:06.140Z,4.1
2023-02-03T00:57:22.437Z,4.5
2023-02-03T00:58:38.745Z,3.8
2023-02-03T00:59:54.048Z,5.1
2023-02-03T01:01:10.342Z,4.6
2023-02-03T01:02:26.622Z,4.2
2023-02-03T01:03:42.920Z,4.2
2023-02-03T01:04:59.214Z,3.3
2023-02-03T01:06:15.000Z,4.4
2023-02-03T01:07:31.810Z,6.3
2023-02-03T01:08:48.107Z,4.6
2023-02-03T01:10:04.389Z,4.6
2023-02-03T01:11:20.692Z,4.2
2023-02-03T01:12:36.981Z,3.4
2023-02-03T01:13:53.279Z,4.1
2023-02-03T01:15:09.568Z,5.1
2023-02-03T01:16:24.893Z,4.1
2023-02-03T01:17:41.176Z,4.3
2023-02-03T01:18:57.474Z,4.6
2023-02-03T01:20:13.772Z,5
2023-02-03T01:21:30.059Z,4
2023-02-03T01:22:46.352Z,5
2023-02-03T01:24:02.655Z,4.9
2023-02-03T01:25:18.953Z,5.1
2023-02-03T01:26:35.250Z,4.6
2023-02-03T01:27:51.530Z,5.2
2023-02-03T01:29:07.824Z,5.1
2023-02-03T01:30:24.126Z,5
2023-02-03T01:31:40.423Z,6.2
2023-02-03T01:32:55.727Z,5
2023-02-03T01:34:12.024Z,5
2023-02-03T01:35:28.324Z,4.9
2023-02-03T01:36:44.617Z,5.8
2023-02-03T01:38:00.907Z,4.9
2023-02-03T01:39:17.198Z,5.6
2023-02-03T01:40:33.504Z,5.6
2023-02-03T01:41:49.783Z,5.4
2023-02-03T01:43:06.080Z,7.2
2023-02-03T01:44:22.388Z,6.6
2023-02-03T01:45:38.668Z,5.4
2023-02-03T01:46:54.976Z,6.2
2023-02-03T01:48:11.260Z,5.2
2023-02-03T01:49:26.586Z,5.8
2023-02-03T01:50:42.868Z,5.4
2023-02-03T01:51:59.160Z,5.6
2023-02-03T01:53:15.453Z,6.7
2023-02-03T01:54:31.757Z,6.2
2023-02-03T01:55:48.048Z,5.9
2023-02-03T01:57:04.334Z,6.3
2023-02-03T01:58:20.644Z,6.2
2023-02-03T01:59:36.932Z,6.3
2023-02-03T02:00:53.230Z,6.2
2023-02-03T02:02:09.520Z,5.7
2023-02-03T02:03:25.815Z,6.8
2023-02-03T02:04:42.105Z,5.7
2023-02-03T02:05:57.420Z,7.5
2023-02-03T02:07:13.723Z,6.8
2023-02-03T02:08:30.002Z,6.5
2023-02-03T02:09:46.298Z,8.4
2023-02-03T02:11:02.591Z,7.6
2023-02-03T02:12:18.885Z,5.9
2023-02-03T02:13:35.178Z,7.9
2023-02-03T02:14:51.479Z,7.4
2023-02-03T02:16:07.770Z,8.6
2023-02-03T02:17:24.067Z,8.1
2023-02-03T02:18:40.374Z,7.5
2023-02-03T02:19:56.651Z,7.4
2023-02-03T02:21:12.951Z,6.8
2023-02-03T02:22:29.364Z,7.4
2023-02-03T02:23:45.666Z,7.6
2023-02-03T02:25:01.952Z,8.5
2023-02-03T02:26:18.261Z,10
2023-02-03T02:27:34.552Z,9.3
2023-02-03T02:28:50.847Z,7.4
2023-02-03T02:30:07.130Z,8.1
2023-02-03T02:31:23.428Z,9.3
2023-02-03T02:32:39.720Z,10.4
2023-02-03T02:33:56.018Z,8.3
2023-02-03T02:35:12.310Z,10
2023-02-03T02:36:28.619Z,8.8
2023-02-03T02:37:44.912Z,8.6
2023-02-03T02:39:00.214Z,8.5
2023-02-03T02:40:16.508Z,9.2
2023-02-03T02:41:32.810Z,9.6
2023-02-03T02:42:49.094Z,9.6
2023-02-03T02:44:05.399Z,10.5
2023-02-03T02:45:21.682Z,10.2
2023-02-03T02:46:37.978Z,10.5
2023-02-03T02:47:54.283Z,10.4
2023-02-03T02:49:10.562Z,10.7
2023-02-03T02:50:26.867Z,10.9
2023-02-03T02:51:43.153Z,9.7
2023-02-03T02:52:59.454Z,10.7
2023-02-03T02:54:15.739Z,11.5
2023-02-03T02:55:31.066Z,10.1
2023-02-03T02:56:47.345Z,11.2
2023-02-03T02:58:03.639Z,11.1
2023-02-03T02:59:19.936Z,10.8
2023-02-03T03:00:36.235Z,11.4
2023-02-03T03:01:52.537Z,14
2023-02-03T03:03:08.833Z,15.5
2023-02-03T03:04:25.111Z,13.1
2023-02-03T03:05:41.405Z,12.3
2023-02-03T03:06:57.704Z,11.1
2023-02-03T03:08:13.997Z,11.5
2023-02-03T03:09:30.294Z,13.1
2023-02-03T03:10:46.589Z,13
2023-02-03T03:12:01.903Z,13
2023-02-03T03:13:18.194Z,12.5
2023-02-03T03:14:34.491Z,12.8
2023-02-03T03:15:50.781Z,14.4
2023-02-03T03:17:07.080Z,13.8
2023-02-03T03:18:23.386Z,13.8
2023-02-03T03:19:38.682Z,13.2
2023-02-03T03:20:54.983Z,13
2023-02-03T03:22:11.282Z,14.2
2023-02-03T03:23:27.579Z,14.3
2023-02-03T03:24:43.870Z,13.5
2023-02-03T03:26:00.156Z,16.1
2023-02-03T03:27:16.465Z,14.6
2023-02-03T03:28:32.749Z,16.3
2023-02-03T03:29:49.038Z,15
2023-02-03T03:31:05.346Z,13.8
2023-02-03T03:32:21.631Z,15
2023-02-03T03:33:37.930Z,14
2023-02-03T03:34:54.218Z,14.6
2023-02-03T03:36:09.530Z,14.1
2023-02-03T03:37:25.825Z,14
2023-02-03T03:38:42.119Z,15.6
2023-02-03T03:39:58.413Z,15.1
2023-02-03T03:41:14.707Z,15.5
2023-02-03T03:42:31.001Z,16
2023-02-03T03:43:47.300Z,17
2023-02-03T03:45:03.589Z,16.4
2023-02-03T03:46:19.891Z,16.2
2023-02-03T03:47:36.178Z,16.8
2023-02-03T03:48:52.475Z,17.3
2023-02-03T03:50:08.766Z,15
2023-02-03T03:51:25.063Z,15.8
2023-02-03T03:52:40.000Z,17.3
2023-02-03T03:53:56.665Z,17
2023-02-03T03:55:12.964Z,15.9
2023-02-03T03:56:29.265Z,15.7
2023-02-03T03:57:45.568Z,16
2023-02-03T03:59:01.847Z,15.7
2023-02-03T04:00:18.137Z,16.6
2023-02-03T04:01:34.431Z,17.9
2023-02-03T04:02:50.726Z,16.7
2023-02-03T04:04:07.031Z,18.1
2023-02-03T04:05:23.317Z,18.1
2023-02-03T04:06:39.610Z,16.3
2023-02-03T04:07:55.903Z,18.2
2023-02-03T04:09:11.215Z,15.5
2023-02-03T04:10:27.521Z,18.5
2023-02-03T04:11:43.803Z,16.2
2023-02-03T04:13:00.099Z,17.1
2023-02-03T04:14:16.396Z,17.4
2023-02-03T04:15:32.701Z,17.8
2023-02-03T04:16:48.992Z,18.3
2023-02-03T04:18:05.279Z,15.7
2023-02-03T04:19:21.573Z,17
2023-02-03T04:20:37.882Z,17.7
2023-02-03T04:21:54.165Z,18.8
2023-02-03T04:23:10.466Z,17.9
2023-02-03T04:24:26.760Z,18.9
2023-02-03T04:25:42.059Z,17.2
2023-02-03T04:26:58.358Z,18.3
2023-02-03T04:28:14.658Z,18.4
2023-02-03T04:29:30.945Z,16.8
2023-02-03T04:30:47.246Z,18.6
2023-02-03T04:32:03.533Z,17.7
2023-02-03T04:33:19.836Z,16.3
2023-02-03T04:34:36.116Z,19.5
2023-02-03T04:35:52.413Z,16.1
2023-02-03T04:37:08.721Z,17.9
2023-02-03T04:38:25.018Z,17.9
2023-02-03T04:39:41.299Z,17.4
2023-02-03T04:40:57.594Z,17.6
2023-02-03T04:42:12.914Z,16.8
2023-02-03T04:43:29.205Z,18.4
2023-02-03T04:44:45.492Z,16.4
2023-02-03T04:46:01.785Z,19.3
2023-02-03T04:47:18.083Z,18
2023-02-03T04:48:34.379Z,19.9
2023-02-03T04:49:50.667Z,18.1
2023-02-03T04:51:06.969Z,18.8
2023-02-03T04:52:23.261Z,19.2
2023-02-03T04:53:39.565Z,17.4
2023-02-03T04:54:55.841Z,18.4
2023-02-03T04:56:12.145Z,18.9
2023-02-03T04:57:28.449Z,19
2023-02-03T04:58:43.746Z,19.6
2023-02-03T05:00:00.039Z,17.9
2023-02-03T05:01:16.333Z,19.7
2023-02-03T05:02:32.638Z,18.6
2023-02-03T05:03:48.926Z,19.3
2023-02-03T05:05:05.211Z,17.8
2023-02-03T05:06:21.505Z,19.2
2023-02-03T05:07:37.809Z,19.6
2023-02-03T05:08:54.114Z,17.2
2023-02-03T05:10:10.400Z,17.6
2023-02-03T05:11:26.686Z,16.4
2023-02-03T05:12:42.992Z,18.8
2023-02-03T05:13:59.289Z,18.9
2023-02-03T05:15:14.588Z,18.8
2023-02-03T05:16:30.880Z,18.1
2023-02-03T05:17:47.182Z,18.5
2023-02-03T05:19:03.470Z,18.7
2023-02-03T05:20:19.774Z,20.1
2023-02-03T05:21:36.064Z,19.9
2023-02-03T05:22:52.350Z,18.4
2023-02-03T05:24:08.644Z,19
2023-02-03T05:25:24.941Z,19
2023-02-03T05:26:41.234Z,17.3
2023-02-03T05:27:57.528Z,17.6
2023-02-03T05:29:13.822Z,16.9
2023-02-03T05:30:30.123Z,17.8
2023-02-03T05:31:45.426Z,16.8
2023-02-03T05:33:01.723Z,17.3
2023-02-03T05:34:18.020Z,18.7
2023-02-03T05:35:34.306Z,18.2
2023-02-03T05:36:50.602Z,17.6
2023-02-03T05:38:06.913Z,17.9
2023-02-03T05:39:23.190Z,16.5
2023-02-03T05:40:39.492Z,16.1
2023-02-03T05:41:55.780Z,16.5
2023-02-03T05:43:12.079Z,17.1
2023-02-03T05:44:28.385Z,16.7
2023-02-03T05:45:44.671Z,15
2023-02-03T05:47:00.966Z,15.4
2023-02-03T05:48:16.280Z,14.1
2023-02-03T05:49:32.571Z,14.8
2023-02-03T05:50:48.854Z,14.2
2023-02-03T05:52:05.165Z,13.3
2023-02-03T05:53:21.452Z,12.1
2023-02-03T05:54:37.746Z,13.7
2023-02-03T05:55:54.032Z,14.1
2023-02-03T05:57:10.335Z,12.5
2023-02-03T05:58:26.625Z,12.6
2023-02-03T05:59:42.921Z,14.1
2023-02-03T06:00:59.219Z,12.1
2023-02-03T06:02:15.502Z,13
2023-02-03T06:03:31.805Z,11.5
2023-02-03T06:04:47.113Z,12.2
2023-02-03T06:06:03.411Z,10.2
2023-02-03T06:07:19.699Z,12.6
2023-02-03T06:08:36.001Z,12.6
2023-02-03T06:09:52.294Z,12.2
2023-02-03T06:11:08.582Z,12.6
2023-02-03T06:12:24.884Z,14.5
2023-02-03T06:13:41.168Z,11.2
2023-02-03T06:14:57.469Z,13.5
2023-02-03T06:16:13.769Z,11.8
2023-02-03T06:17:30.064Z,12.9
2023-02-03T06:18:46.355Z,12.7
2023-02-03T06:20:02.646Z,13
2023-02-03T06:21:17.955Z,13
2023-02-03T06:22:34.250Z,13.7
2023-02-03T06:23:50.498Z,14.3
2023-02-03T06:25:06.785Z,15.4
2023-02-03T06:26:23.033Z,15.5
2023-02-03T06:27:39.276Z,14.1
2023-02-03T06:28:55.573Z,16
2023-02-03T06:30:11.826Z,14.7
2023-02-03T06:31:28.064Z,14
2023-02-03T06:32:44.300Z,13.1
2023-02-03T06:34:00.558Z,13.4
2023-02-03T06:35:16.790Z,13.3
2023-02-03T06:36:33.037Z,13.1
2023-02-03T06:37:48.299Z,11.9
2023-02-03T06:39:04.530Z,13.4
2023-02-03T06:40:20.773Z,11.1
2023-02-03T06:41:37.026Z,13
2023-02-03T06:42:53.252Z,12.5
2023-02-03T06:44:09.505Z,13.5
2023-02-03T06:45:25.729Z,12.8
2023-02-03T06:46:41.970Z,12.4
2023-02-03T06:47:58.218Z,11.3
2023-02-03T06:49:14.452Z,12.3
2023-02-03T06:50:30.701Z,11.5
2023-02-03T06:51:46.941Z,12.1
2023-02-03T06:53:03.173Z,11.2
2023-02-03T06:54:18.440Z,11.4
2023-02-03T06:55:34.682Z,11.8
2023-02-03T06:56:50.907Z,11
2023-02-03T06:58:07.162Z,10.8
2023-02-03T06:59:23.397Z,11.2
2023-02-03T07:00:39.646Z,9.2
2023-02-03T07:01:55.880Z,9.5
2023-02-03T07:03:12.110Z,11.2
2023-02-03T07:04:28.354Z,10.7
2023-02-03T07:05:44.595Z,10.6
2023-02-03T07:07:00.838Z,10.7
2023-02-03T07:08:17.078Z,10.3
2023-02-03T07:09:33.317Z,8.9
2023-02-03T07:10:48.584Z,9
2023-02-03T07:12:04.809Z,9.4
2023-02-03T07:13:21.062Z,9.5
2023-02-03T07:14:37.302Z,10.6
2023-02-03T07:15:53.537Z,9.8
2023-02-03T07:17:09.775Z,10.3
2023-02-03T07:18:26.008Z,10
2023-02-03T07:19:42.255Z,9.6
2023-02-03T07:20:58.500Z,9.3
2023-02-03T07:22:14.737Z,9.7
2023-02-03T07:23:30.976Z,9.8
2023-02-03T07:24:47.226Z,9.9
2023-02-03T07:26:03.457Z,8.7
2023-02-03T07:27:19.692Z,8.9
2023-02-03T07:28:34.957Z,9.2
2023-02-03T07:29:51.200Z,8.1
2023-02-03T07:31:07.430Z,10.5
2023-02-03T07:32:23.684Z,9
2023-02-03T07:33:39.925Z,10.3
2023-02-03T07:34:55.187Z,8.4
2023-02-03T07:36:11.414Z,8.8
2023-02-03T07:37:27.657Z,8
2023-02-03T07:38:43.894Z,10.9
2023-02-03T07:40:00.135Z,8.4
2023-02-03T07:41:16.371Z,8.9
2023-02-03T07:42:32.617Z,8.7
2023-02-03T07:43:48.854Z,8.3
2023-02-03T07:45:05.095Z,9.6
2023-02-03T07:46:21.000Z,9.1
2023-02-03T07:47:37.588Z,8.4
2023-02-03T07:48:53.822Z,9.5
2023-02-03T07:50:10.052Z,8
2023-02-03T07:51:25.308Z,9.4
2023-02-03T07:52:41.556Z,9.8
2023-02-03T07:53:57.807Z,9.2
2023-02-03T07:55:14.037Z,9.9
2023-02-03T07:56:30.270Z,8.7
2023-02-03T07:57:46.520Z,8.2
2023-02-03T07:59:02.755Z,8.5
2023-02-03T08:00:18.993Z,11
2023-02-03T08:01:35.234Z,8.4
2023-02-03T08:02:51.486Z,9.1
2023-02-03T08:04:07.717Z,9.1
2023-02-03T08:05:23.951Z,8.9
2023-02-03T08:06:40.203Z,9.5
2023-02-03T08:07:55.460Z,10.8
2023-02-03T08:09:11.700Z,9.2
2023-02-03T08:10:27.936Z,11
2023-02-03T08:11:44.189Z,10.3
2023-02-03T08:13:00.425Z,9.4
2023-02-03T08:14:16.663Z,9.8
2023-02-03T08:15:32.892Z,9.2
2023-02-03T08:16:49.131Z,10.4
2023-02-03T08:18:05.376Z,8.8
2023-02-03T08:19:21.622Z,8.6
2023-02-03T08:20:37.854Z,8.7
2023-02-03T08:21:54.090Z,10
2023-02-03T08:23:10.337Z,10.5
2023-02-03T08:24:25.592Z,9
2023-02-03T08:25:41.844Z,10.1
2023-02-03T08:26:58.070Z,8.3
2023-02-03T08:28:14.315Z,8.2
2023-02-03T08:29:30.551Z,9.8
2023-02-03T08:30:46.800Z,8.7
2023-02-03T08:32:03.041Z,8.1
2023-02-03T08:33:19.288Z,9
2023-02-03T08:34:35.509Z,8
2023-02-03T08:35:51.768Z,8.7
2023-02-03T08:37:07.994Z,8
2023-02-03T08:38:24.250Z,7.9
2023-02-03T08:39:40.489Z,8.4
2023-02-03T08:40:55.726Z,7.2
2023-02-03T08:42:11.983Z,9.5
2023-02-03T08:43:28.215Z,8.6
2023-02-03T08:44:44.461Z,8.7
2023-02-03T08:46:00.698Z,8.2
2023-02-03T08:47:16.940Z,7.2
2023-02-03T08:48:33.186Z,7.9
2023-02-03T08:49:49.419Z,9.6
2023-02-03T08:51:05.648Z,8.3
2023-02-03T08:52:21.906Z,6.6
2023-02-03T08:53:38.134Z,7.9
2023-02-03T08:54:54.386Z,8.5
2023-02-03T08:56:10.625Z,7.4
2023-02-03T08:57:25.873Z,8.5
2023-02-03T08:58:42.120Z,7.9
2023-02-03T08:59:58.357Z,6.6
2023-02-03T09:01:14.602Z,7.7
2023-02-03T09:02:30.842Z,7.7
2023-02-03T09:03:47.079Z,8.7
2023-02-03T09:05:03.326Z,6.9
2023-02-03T09:06:19.547Z,7.7
2023-02-03T09:07:35.797Z,9.3
2023-02-03T09:08:52.029Z,7.6
2023-02-03T09:10:08.278Z,8.9
2023-02-03T09:11:24.519Z,9.5
2023-02-03T09:12:40.764Z,9.3
2023-02-03T09:13:56.016Z,6.7
2023-02-03T09:15:12.259Z,8.9
2023-02-03T09:16:28.501Z,7.2
2023-02-03T09:17:44.730Z,7.9
2023-02-03T09:19:00.982Z,8
2023-02-03T09:20:17.225Z,8.4
2023-02-03T09:21:33.446Z,10
2023-02-03T09:22:49.696Z,6.6
2023-02-03T09:24:05.945Z,8.2
2023-02-03T09:25:22.167Z,7.9
2023-02-03T09:26:38.415Z,8
2023-02-03T09:27:54.649Z,8.1
2023-02-03T09:29:10.891Z,7.5
2023-02-03T09:30:26.151Z,7.4
2023-02-03T09:31:42.392Z,6.9
2023-02-03T09:32:58.629Z,8
2023-02-03T09:34:14.870Z,11.3
2023-02-03T09:35:31.124Z,9.3
2023-02-03T09:36:47.356Z,7.9
2023-02-03T09:38:03.598Z,7.4
2023-02-03T09:39:19.835Z,6.6
2023-02-03T09:40:36.071Z,7.6
2023-02-03T09:41:52.312Z,8.1
2023-02-03T09:43:08.553Z,8.5
2023-02-03T09:44:24.795Z,9.5
2023-02-03T09:45:41.031Z,8.2
2023-02-03T09:46:56.286Z,7
2023-02-03T09:48:12.540Z,6.5
2023-02-03T09:49:28.775Z,5.6
2023-02-03T09:50:45.013Z,5.4
2023-02-03T09:52:01.244Z,7.8
2023-02-03T09:53:17.493Z,6.1
2023-02-03T09:54:33.729Z,7.1
2023-02-03T09:55:49.973Z,6.5
2023-02-03T09:57:06.214Z,6.2
2023-02-03T09:58:22.449Z,5.8
2023-02-03T09:59:38.697Z,6.4
2023-02-03T10:00:54.944Z,5.9
2023-02-03T10:02:11.170Z,9.5
2023-02-03T10:03:26.424Z,6.3
2023-02-03T10:04:42.667Z,6.8
2023-02-03T10:05:58.908Z,7.6
2023-02-03T10:07:15.161Z,6.3
2023-02-03T10:08:31.397Z,6.5
2023-02-03T10:09:47.625Z,5.8
2023-02-03T10:11:03.865Z,5.4
2023-02-03T10:12:20.119Z,6.3
2023-02-03T10:13:36.353Z,7.5
2023-02-03T10:14:52.586Z,7.3
2023-02-03T10:16:08.828Z,6.2
2023-02-03T10:17:25.078Z,7.2
2023-02-03T10:18:41.321Z,6.1
2023-02-03T10:19:56.573Z,5.6
2023-02-03T10:21:12.814Z,6.7
2023-02-03T10:22:29.044Z,5.3
2023-02-03T10:23:45.286Z,5.7
2023-02-03T10:25:01.536Z,5.6
2023-02-03T10:26:17.762Z,7.3
2023-02-03T10:27:34.018Z,5.8
2023-02-03T10:28:50.261Z,5.8
2023-02-03T10:30:06.493Z,6.8
2023-02-03T10:31:22.744Z,6.6
2023-02-03T10:32:38.972Z,6.2
2023-02-03T10:33:55.220Z,8.4
2023-02-03T10:35:11.455Z,6.1
2023-02-03T10:36:26.715Z,6.1
2023-02-03T10:37:42.947Z,7
2023-02-03T10:38:59.183Z,5.8
2023-02-03T10:40:15.440Z,7.6
2023-02-03T10:41:31.663Z,5.8
2023-02-03T10:42:47.910Z,5.8
2023-02-03T10:44:04.162Z,5.6
2023-02-03T10:45:20.395Z,5.4
2023-02-03T10:46:36.629Z,7.1
2023-02-03T10:47:52.868Z,5.8
2023-02-03T10:49:09.108Z,6.2
2023-02-03T10:50:25.344Z,5.5
2023-02-03T10:52:57.835Z,5.3
2023-02-03T10:54:13.082Z,5.5
2023-02-03T10:55:29.323Z,5.5
2023-02-03T10:56:45.577Z,5.9
2023-02-03T10:58:01.816Z,5.7
2023-02-03T10:59:18.048Z,6.4
2023-02-03T11:00:34.280Z,6.3
2023-02-03T11:01:50.524Z,4.6
2023-02-03T11:03:06.775Z,6.4
2023-02-03T11:04:23.023Z,7.2
2023-02-03T11:05:39.265Z,5.7
2023-02-03T11:06:55.499Z,5.9
2023-02-03T11:08:11.734Z,6.4
2023-02-03T11:09:27.972Z,6.1
2023-02-03T11:10:43.219Z,6.8
2023-02-03T11:11:59.469Z,5.4
2023-02-03T11:13:15.704Z,5.7
2023-02-03T11:14:31.945Z,6.9
2023-02-03T11:15:48.198Z,6.5
2023-02-03T11:17:04.420Z,5.2
2023-02-03T11:18:20.662Z,7.6
2023-02-03T11:19:36.911Z,6.5
2023-02-03T11:20:53.154Z,7.6
2023-02-03T11:22:09.380Z,6.9
2023-02-03T11:23:25.621Z,6.6
2023-02-03T11:24:41.867Z,6
2023-02-03T11:25:58.100Z,6.2
2023-02-03T11:27:13.358Z,6.9
2023-02-03T11:28:29.597Z,6.9
2023-02-03T11:29:45.840Z,7.1
2023-02-03T11:31:02.089Z,5.8
2023-02-03T11:32:18.323Z,6
2023-02-03T11:33:34.560Z,5.9
2023-02-03T11:34:50.807Z,7.4
2023-02-03T11:36:07.040Z,6.9
2023-02-03T11:37:23.281Z,6.3
2023-02-03T11:38:39.000Z,6.7
2023-02-03T11:39:55.763Z,6.7
2023-02-03T11:41:12.000Z,5.6
2023-02-03T11:42:28.241Z,5.6
2023-02-03T11:43:43.510Z,5.5
2023-02-03T11:44:59.753Z,6.3
2023-02-03T11:46:15.982Z,6
2023-02-03T11:47:32.232Z,5.3
2023-02-03T11:48:48.475Z,6.4
2023-02-03T11:50:03.718Z,5.4
2023-02-03T11:51:19.974Z,6.8
2023-02-03T11:52:36.206Z,5.4
2023-02-03T11:53:52.462Z,5.7
2023-02-03T11:55:08.695Z,8.1
2023-02-03T11:56:24.918Z,6.4
2023-02-03T11:57:41.171Z,5.5
2023-02-03T11:58:57.404Z,5.2
2023-02-03T12:01:29.878Z,4.8
2023-02-03T12:02:46.127Z,5
2023-02-03T12:04:02.364Z,7
2023-02-03T12:05:18.614Z,4.8
2023-02-03T12:06:33.874Z,4.8
2023-02-03T12:07:50.105Z,5.9
2023-02-03T12:09:06.346Z,5.3
2023-02-03T12:10:22.587Z,6.6
2023-02-03T12:11:38.826Z,5.1
2023-02-03T12:12:55.065Z,5.9
2023-02-03T12:14:11.302Z,5.8
2023-02-03T12:15:27.541Z,5.1
2023-02-03T12:16:43.790Z,4.7
2023-02-03T12:18:00.000Z,4.7
2023-02-03T12:19:16.262Z,4.5
2023-02-03T12:20:32.506Z,4.9
2023-02-03T12:21:48.754Z,5.3
2023-02-03T12:23:04.002Z,4.9
2023-02-03T12:24:20.253Z,5.6
2023-02-03T12:25:36.489Z,4.3
2023-02-03T12:26:52.719Z,4
2023-02-03T12:28:08.959Z,4
2023-02-03T12:29:25.202Z,4.3
2023-02-03T12:30:41.458Z,5.5
2023-02-03T12:31:57.680Z,6.1
2023-02-03T12:33:13.921Z,4.4
2023-02-03T12:34:30.164Z,4.8
2023-02-03T12:35:46.399Z,4.3
2023-02-03T12:37:02.642Z,4.4
2023-02-03T12:38:18.881Z,5.1
2023-02-03T12:39:34.136Z,6.6
2023-02-03T12:40:50.396Z,4.8
2023-02-03T12:42:06.611Z,5.3
2023-02-03T12:43:22.860Z,4.6
2023-02-03T12:44:39.097Z,4.4
2023-02-03T12:45:55.347Z,4.6
2023-02-03T12:47:11.579Z,4.3
2023-02-03T12:48:27.816Z,5.1
2023-02-03T12:49:44.057Z,4.5
2023-02-03T12:51:00.300Z,5.8
2023-02-03T12:52:16.540Z,4.6
2023-02-03T12:53:32.781Z,5.6
2023-02-03T12:54:49.034Z,3.9
2023-02-03T12:56:04.276Z,3.9
2023-02-03T12:57:20.510Z,6.4
2023-02-03T12:58:36.764Z,5
2023-02-03T12:59:53.006Z,4.3
2023-02-03T13:01:09.244Z,4.4
2023-02-03T13:02:25.472Z,6.8
2023-02-03T13:03:41.709Z,6
2023-02-03T13:04:57.962Z,5.1
2023-02-03T13:06:14.192Z,6.1
2023-02-03T13:07:30.442Z,6.3
2023-02-03T13:08:46.684Z,9.3
2023-02-03T13:10:02.921Z,5.8
2023-02-03T13:11:19.151Z,7.6
2023-02-03T13:12:34.422Z,7.1
2023-02-03T13:13:50.646Z,9.5
2023-02-03T13:15:06.892Z,6.7
2023-02-03T13:16:23.137Z,10.4
2023-02-03T13:17:39.374Z,7.1
2023-02-03T13:18:55.605Z,8.1
2023-02-03T13:20:11.861Z,7.5
2023-02-03T13:21:28.089Z,10.5
2023-02-03T13:22:44.324Z,7.5
2023-02-03T13:24:00.578Z,9.6
2023-02-03T13:25:16.823Z,9.5
2023-02-03T13:26:33.072Z,8.7
2023-02-03T13:27:49.305Z,8.7
2023-02-03T13:29:04.547Z,9.4
2023-02-03T13:30:20.783Z,10.1
2023-02-03T13:31:37.035Z,10.8
2023-02-03T13:32:53.264Z,11.4
2023-02-03T13:34:09.508Z,9.7
2023-02-03T13:35:25.751Z,8.4
2023-02-03T13:36:41.992Z,8.3
2023-02-03T13:37:58.223Z,12.1
2023-02-03T13:39:14.486Z,10
2023-02-03T13:40:30.702Z,9.9
2023-02-03T13:41:46.955Z,8.6
2023-02-03T13:43:03.182Z,14
2023-02-03T13:44:19.429Z,11.8
2023-02-03T13:45:34.684Z,8.9
2023-02-03T13:46:50.921Z,9.2
2023-02-03T13:48:07.176Z,10
2023-02-03T13:49:23.412Z,10.6
2023-02-03T13:50:39.643Z,11.4
2023-02-03T13:51:55.891Z,11.4
2023-02-03T13:53:12.131Z,11.2
2023-02-03T13:55:44.610Z,13
2023-02-03T13:57:00.848Z,11.3
2023-02-03T13:58:17.093Z,10.3
2023-02-03T13:59:33.332Z,12.5
2023-02-03T14:00:49.573Z,11.2
2023-02-03T14:02:04.825Z,12.2
2023-02-03T14:03:21.067Z,9.6
2023-02-03T14:04:37.307Z,12.2
2023-02-03T14:05:53.551Z,10.9
2023-02-03T14:07:09.788Z,9.9
2023-02-03T14:08:26.022Z,10.9
2023-02-03T14:09:42.259Z,10.5
2023-02-03T14:10:58.504Z,16.3
2023-02-03T14:12:14.758Z,10.5
2023-02-03T14:13:30.998Z,11.9
2023-02-03T14:14:47.224Z,14.4
2023-02-03T14:16:03.459Z,9.8
2023-02-03T14:17:19.698Z,10.2
2023-02-03T14:18:34.970Z,9.9
2023-02-03T14:19:51.194Z,10.2
2023-02-03T14:21:07.461Z,8.5
2023-02-03T14:22:23.686Z,9.3
2023-02-03T14:23:39.926Z,11
2023-02-03T14:24:56.162Z,7.1
2023-02-03T14:26:12.408Z,8.6
2023-02-03T14:27:28.643Z,7.6
2023-02-03T14:28:44.900Z,10.4
2023-02-03T14:30:01.123Z,10.4
2023-02-03T14:31:17.374Z,11.3
2023-02-03T14:32:33.598Z,11.4
2023-02-03T14:33:49.842Z,9.4
2023-02-03T14:35:05.100Z,10.2
2023-02-03T14:36:21.343Z,8.7
2023-02-03T14:37:37.591Z,10
2023-02-03T14:38:53.831Z,10.8
2023-02-03T14:40:10.071Z,10.6
2023-02-03T14:41:26.304Z,12
2023-02-03T14:42:42.535Z,12.1
2023-02-03T14:43:58.788Z,11.4
2023-02-03T14:45:15.016Z,8
2023-02-03T14:46:31.268Z,8.9
2023-02-03T14:47:47.502Z,8.8
2023-02-03T14:49:03.757Z,8.8
2023-02-03T14:50:19.991Z,9.6
2023-02-03T14:51:35.238Z,11.9
2023-02-03T14:52:51.480Z,9.1
2023-02-03T14:54:07.729Z,10.4
2023-02-03T14:55:23.958Z,18.2
2023-02-03T14:56:40.202Z,15.8
2023-02-03T14:57:56.448Z,14.6
2023-02-03T14:59:12.681Z,18.6
2023-02-03T15:00:28.922Z,12.1
2023-02-03T15:01:45.169Z,15.5
2023-02-03T15:03:01.405Z,15.7
2023-02-03T15:04:17.650Z,16
2023-02-03T15:05:33.891Z,17.3
2023-02-03T15:06:50.115Z,22.6
2023-02-03T15:08:05.384Z,14.2
2023-02-03T15:09:21.629Z,11.8
2023-02-03T15:10:37.866Z,11.5
2023-02-03T15:11:54.098Z,10.4
2023-02-03T15:13:10.352Z,10.8
2023-02-03T15:14:26.576Z,8.4
2023-02-03T15:15:42.827Z,12.1
2023-02-03T15:16:59.057Z,11.7
2023-02-03T15:18:15.302Z,11.7
2023-02-03T15:19:31.540Z,15.5
2023-02-03T15:20:47.787Z,11.2
2023-02-03T15:22:04.015Z,10.5
2023-02-03T15:23:20.262Z,13.4
2023-02-03T15:24:35.523Z,15.3
2023-02-03T15:25:51.752Z,11.4
2023-02-03T15:27:08.016Z,12.6
2023-02-03T15:28:24.234Z,13.9
2023-02-03T15:29:40.477Z,13
2023-02-03T15:30:56.723Z,14.6
2023-02-03T15:32:12.971Z,14.5
2023-02-03T15:33:29.211Z,15.2
2023-02-03T15:34:45.435Z,14.9
2023-02-03T15:36:01.700Z,15
2023-02-03T15:37:17.924Z,14.6
2023-02-03T15:38:34.169Z,10.3
2023-02-03T15:39:50.405Z,13.6
2023-02-03T15:41:05.659Z,13
2023-02-03T15:42:21.910Z,16.3
2023-02-03T15:43:38.150Z,16.7
2023-02-03T15:44:54.383Z,15.6
2023-02-03T15:46:10.627Z,10.4
2023-02-03T15:47:26.861Z,12.4
2023-02-03T15:48:43.100Z,17.2
2023-02-03T15:49:59.347Z,14.7
2023-02-03T15:51:15.573Z,12.2
2023-02-03T15:52:31.819Z,13.3
2023-02-03T15:53:48.057Z,12.5
2023-02-03T15:55:04.310Z,11.8
2023-02-03T15:56:20.547Z,13.5
2023-02-03T15:57:35.792Z,16.4
2023-02-03T15:58:52.030Z,13.9
2023-02-03T16:00:08.291Z,12.1
2023-02-03T16:01:24.000Z,15.7
2023-02-03T16:02:40.770Z,14.8
2023-02-03T16:03:57.005Z,14.7
2023-02-03T16:05:12.256Z,14.2
2023-02-03T16:06:28.498Z,13.1
2023-02-03T16:07:44.749Z,11.1
2023-02-03T16:09:00.980Z,13.2
2023-02-03T16:10:17.225Z,15
2023-02-03T16:11:33.467Z,15.5
2023-02-03T16:12:49.705Z,12.7
2023-02-03T16:14:05.950Z,13.8
2023-02-03T16:15:22.185Z,12.6
2023-02-03T16:16:38.425Z,15.5
2023-02-03T16:17:54.655Z,11.4
2023-02-03T16:19:10.914Z,17.9
2023-02-03T16:20:27.151Z,16.1
2023-02-03T16:21:42.398Z,13.6
2023-02-03T16:22:58.654Z,11.2
2023-02-03T16:24:14.945Z,12.8
2023-02-03T16:25:31.222Z,14.5
2023-02-03T16:26:47.521Z,12.4
2023-02-03T16:28:03.815Z,15.7
2023-02-03T16:29:20.124Z,14.7
2023-02-03T16:30:36.423Z,10.4
2023-02-03T16:31:52.709Z,15.2
2023-02-03T16:33:08.989Z,13.6
2023-02-03T16:34:25.285Z,15.6
2023-02-03T16:35:41.581Z,13.2
2023-02-03T16:36:57.871Z,13.5
2023-02-03T16:38:13.207Z,11.7
2023-02-03T16:39:29.477Z,11.9
2023-02-03T16:40:45.775Z,14.2
2023-02-03T16:42:02.071Z,12.8
2023-02-03T16:43:18.360Z,14.8
2023-02-03T16:44:34.653Z,15.6
2023-02-03T16:45:50.963Z,13.1
2023-02-03T16:47:07.251Z,16.2
2023-02-03T16:48:23.536Z,13.1
2023-02-03T16:49:39.839Z,10.5
2023-02-03T16:50:56.137Z,13.4
2023-02-03T16:52:12.428Z,15.7
2023-02-03T16:53:28.728Z,13.5
2023-02-03T16:54:44.034Z,12.8
2023-02-03T16:56:00.326Z,13.7
2023-02-03T16:57:16.610Z,12.9
2023-02-03T16:58:32.913Z,12.2
2023-02-03T16:59:49.221Z,14.2
2023-02-03T17:01:05.505Z,9.7
2023-02-03T17:02:21.789Z,13
2023-02-03T17:03:38.093Z,9.8
2023-02-03T17:04:54.392Z,13.5
2023-02-03T17:06:10.672Z,9.6
2023-02-03T17:07:26.976Z,12.2
2023-02-03T17:08:43.269Z,13.2
2023-02-03T17:09:59.552Z,14
2023-02-03T17:11:14.871Z,15.7
2023-02-03T17:12:31.163Z,13.9
2023-02-03T17:13:47.452Z,12.1
2023-02-03T17:15:03.757Z,12.3
2023-02-03T17:16:20.053Z,15.6
2023-02-03T17:17:36.348Z,15.2
2023-02-03T17:18:52.629Z,13.3
2023-02-03T17:20:08.940Z,13.4
2023-02-03T17:21:25.232Z,12.7
2023-02-03T17:22:41.514Z,11.7